Station Historical Data
Daily Summary for November 15, 2017 Units:  English    Metric   Both
« Previous Day
Next Day »
Daily Weekly Monthly Yearly Custom
  High: Low: Average:
Temperature: 47.4 °F 28.7 °F 39.6 °F
Dew Point: 40.2 °F 26.1 °F 30.9 °F
Humidity: 91% 54% 73%
Wind Speed: 11.0mph 0.0mph 2.4mph
Wind Gust: 22.0mph - -
Wind- - SSE
Pressure: 30.30 in 29.72 in -
Precipitation: 0.00 in    
Historical Graphs
 
 
Tabular Data for November 15, 2017
Time Temperature Dew Point Pressure Wind Wind Speed Wind Gust Humidity Rainfall Rate (Hourly)
00:04 31.2 °F 28.3 °F 30.30 in Calm     89% 0.00 in
00:09 31.1 °F 28.2 °F 30.30 in Calm     89% 0.00 in
00:14 31.0 °F 28.1 °F 30.30 in Calm     89% 0.00 in
00:19 31.0 °F 28.1 °F 30.30 in Calm     89% 0.00 in
00:24 30.8 °F 27.9 °F 30.30 in Calm     89% 0.00 in
00:34 30.7 °F 27.8 °F 30.30 in Calm     89% 0.00 in
00:39 30.6 °F 27.7 °F 30.30 in Calm     89% 0.00 in
00:44 30.5 °F 27.6 °F 30.30 in Calm     89% 0.00 in
00:49 30.2 °F 27.3 °F 30.30 in Calm     89% 0.00 in
00:54 30.0 °F 27.2 °F 30.29 in Calm     89% 0.00 in
00:59 30.0 °F 27.2 °F 30.30 in Calm     89% 0.00 in
01:04 30.0 °F 27.4 °F 30.29 in Calm     90% 0.00 in
01:09 29.8 °F 27.0 °F 30.29 in Calm     89% 0.00 in
01:14 29.9 °F 27.3 °F 30.29 in Calm     90% 0.00 in
01:19 29.7 °F 27.1 °F 30.29 in Calm     90% 0.00 in
01:24 29.6 °F 27.0 °F 30.29 in Calm     90% 0.00 in
01:29 29.5 °F 26.9 °F 30.29 in Calm     90% 0.00 in
01:34 29.5 °F 26.9 °F 30.29 in Calm     90% 0.00 in
01:39 29.5 °F 26.9 °F 30.28 in Calm     90% 0.00 in
01:44 29.5 °F 26.9 °F 30.28 in Calm     90% 0.00 in
01:49 29.5 °F 26.9 °F 30.28 in Calm     90% 0.00 in
01:54 29.4 °F 26.8 °F 30.28 in Calm     90% 0.00 in
01:59 29.4 °F 26.8 °F 30.27 in Calm     90% 0.00 in
02:04 29.4 °F 26.8 °F 30.27 in Calm     90% 0.00 in
02:09 29.5 °F 26.9 °F 30.27 in Calm     90% 0.00 in
02:14 29.5 °F 26.9 °F 30.27 in Calm     90% 0.00 in
02:19 29.6 °F 27.0 °F 30.28 in Calm     90% 0.00 in
02:24 29.5 °F 26.9 °F 30.28 in Calm     90% 0.00 in
02:29 29.3 °F 26.7 °F 30.28 in Calm     90% 0.00 in
02:34 29.1 °F 26.5 °F 30.29 in Calm     90% 0.00 in
02:39 29.1 °F 26.5 °F 30.29 in Calm     90% 0.00 in
02:44 29.0 °F 26.4 °F 30.28 in Calm     90% 0.00 in
02:49 29.0 °F 26.7 °F 30.28 in Calm     91% 0.00 in
02:54 29.0 °F 26.7 °F 30.28 in Calm     91% 0.00 in
02:59 29.2 °F 26.9 °F 30.28 in Calm     91% 0.00 in
03:04 29.2 °F 26.6 °F 30.27 in Calm     90% 0.00 in
03:09 29.2 °F 26.9 °F 30.27 in Calm     91% 0.00 in
03:14 29.1 °F 26.5 °F 30.27 in Calm     90% 0.00 in
03:19 29.0 °F 26.7 °F 30.27 in Calm     91% 0.00 in
03:24 29.0 °F 26.7 °F 30.26 in Calm     91% 0.00 in
03:29 29.0 °F 26.7 °F 30.26 in Calm     91% 0.00 in
03:34 29.0 °F 26.4 °F 30.26 in Calm     90% 0.00 in
03:39 29.0 °F 26.7 °F 30.25 in Calm     91% 0.00 in
03:49 29.0 °F 26.4 °F 30.25 in Calm     90% 0.00 in
03:54 28.9 °F 26.3 °F 30.25 in Calm     90% 0.00 in
03:59 28.9 °F 26.3 °F 30.25 in Calm     90% 0.00 in
04:04 28.8 °F 26.2 °F 30.25 in Calm     90% 0.00 in
04:09 28.8 °F 26.5 °F 30.25 in Calm     91% 0.00 in
04:14 28.9 °F 26.6 °F 30.26 in Calm     91% 0.00 in
04:19 28.9 °F 26.6 °F 30.26 in Calm     91% 0.00 in
04:24 29.0 °F 26.7 °F 30.26 in Calm     91% 0.00 in
04:29 29.0 °F 26.4 °F 30.26 in Calm     90% 0.00 in
04:34 29.0 °F 26.4 °F 30.26 in Calm     90% 0.00 in
04:39 28.8 °F 26.2 °F 30.26 in Calm     90% 0.00 in
04:44 28.7 °F 26.1 °F 30.26 in Calm     90% 0.00 in
04:49 28.7 °F 26.1 °F 30.26 in Calm     90% 0.00 in
04:54 28.7 °F 26.4 °F 30.25 in Calm     91% 0.00 in
04:59 28.8 °F 26.2 °F 30.25 in Calm     90% 0.00 in
05:04 28.9 °F 26.3 °F 30.25 in Calm     90% 0.00 in
05:09 29.0 °F 26.4 °F 30.25 in Calm     90% 0.00 in
05:14 28.9 °F 26.3 °F 30.25 in Calm     90% 0.00 in
05:19 28.8 °F 26.2 °F 30.25 in Calm     90% 0.00 in
05:24 28.9 °F 26.3 °F 30.24 in Calm     90% 0.00 in
05:29 28.9 °F 26.3 °F 30.24 in Calm     90% 0.00 in
05:34 29.0 °F 26.4 °F 30.23 in Calm     90% 0.00 in
05:39 29.0 °F 26.4 °F 30.23 in Calm     90% 0.00 in
05:44 29.0 °F 26.4 °F 30.23 in Calm     90% 0.00 in
05:49 29.0 °F 26.4 °F 30.23 in Calm     90% 0.00 in
05:54 29.0 °F 26.4 °F 30.24 in Calm     90% 0.00 in
05:59 29.0 °F 26.4 °F 30.24 in Calm     90% 0.00 in
06:04 28.8 °F 26.2 °F 30.24 in Calm     90% 0.00 in
06:09 29.0 °F 26.4 °F 30.24 in Calm     90% 0.00 in
06:14 29.0 °F 26.4 °F 30.24 in Calm     90% 0.00 in
06:19 28.9 °F 26.3 °F 30.24 in Calm     90% 0.00 in
06:24 29.0 °F 26.4 °F 30.23 in Calm     90% 0.00 in
06:29 29.1 °F 26.5 °F 30.23 in Calm     90% 0.00 in
06:34 29.2 °F 26.6 °F 30.23 in Calm     90% 0.00 in
06:39 29.2 °F 26.6 °F 30.23 in Calm     90% 0.00 in
06:44 29.4 °F 26.8 °F 30.23 in Calm     90% 0.00 in
06:49 29.4 °F 26.6 °F 30.23 in Calm     89% 0.00 in
06:54 29.5 °F 26.7 °F 30.23 in Calm     89% 0.00 in
06:59 29.5 °F 26.7 °F 30.23 in Calm     89% 0.00 in
07:04 29.6 °F 26.8 °F 30.22 in Calm     89% 0.00 in
07:09 29.5 °F 26.7 °F 30.22 in Calm     89% 0.00 in
07:14 29.6 °F 26.8 °F 30.22 in Calm     89% 0.00 in
07:19 29.8 °F 27.0 °F 30.21 in Calm   5.0 mph 89% 0.00 in
07:29 30.1 °F 27.3 °F 30.21 in Calm   2.0 mph 89% 0.00 in
07:34 30.4 °F 27.5 °F 30.21 in Calm   3.0 mph 89% 0.00 in
07:39 30.8 °F 27.9 °F 30.20 in ESE 1.0 mph 3.0 mph 89% 0.00 in
07:44 31.0 °F 27.9 °F 30.20 in Calm   3.0 mph 88% 0.00 in
07:49 31.2 °F 28.1 °F 30.20 in East 1.0 mph 3.0 mph 88% 0.00 in
07:54 31.5 °F 28.4 °F 30.20 in Calm   5.0 mph 88% 0.00 in
07:59 31.7 °F 28.3 °F 30.21 in Calm   1.0 mph 87% 0.00 in
08:04 31.9 °F 28.5 °F 30.21 in Calm   4.0 mph 87% 0.00 in
08:09 32.2 °F 28.8 °F 30.21 in Calm   4.0 mph 87% 0.00 in
08:14 32.4 °F 28.7 °F 30.20 in Calm   3.0 mph 86% 0.00 in
08:19 32.6 °F 28.9 °F 30.20 in ESE 1.0 mph 4.0 mph 86% 0.00 in
08:24 32.8 °F 29.1 °F 30.20 in SE 1.0 mph 4.0 mph 86% 0.00 in
08:29 33.0 °F 29.0 °F 30.20 in Calm   3.0 mph 85% 0.00 in
08:34 33.4 °F 29.4 °F 30.20 in Calm   3.0 mph 85% 0.00 in
08:39 33.8 °F 29.8 °F 30.20 in Calm   3.0 mph 85% 0.00 in
08:44 34.0 °F 29.7 °F 30.20 in Calm   1.0 mph 84% 0.00 in
08:49 34.3 °F 30.0 °F 30.20 in South 2.0 mph 3.0 mph 84% 0.00 in
08:54 34.9 °F 30.3 °F 30.20 in SSE 1.0 mph 6.0 mph 83% 0.00 in
08:59 35.5 °F 30.5 °F 30.20 in Calm   5.0 mph 82% 0.00 in
09:04 36.1 °F 30.8 °F 30.19 in SSE 1.0 mph 6.0 mph 81% 0.00 in
09:09 36.6 °F 31.0 °F 30.19 in SE 2.0 mph 6.0 mph 80% 0.00 in
09:14 37.4 °F 31.5 °F 30.18 in SE 2.0 mph 6.0 mph 79% 0.00 in
09:19 38.2 °F 31.9 °F 30.17 in SE 1.0 mph 5.0 mph 78% 0.00 in
09:24 38.6 °F 31.7 °F 30.17 in SE 2.0 mph 6.0 mph 76% 0.00 in
09:29 38.9 °F 31.6 °F 30.17 in SE 3.0 mph 8.0 mph 75% 0.00 in
09:34 39.2 °F 31.9 °F 30.17 in SSE 3.0 mph 8.0 mph 75% 0.00 in
09:39 39.5 °F 31.6 °F 30.16 in SSE 3.0 mph 8.0 mph 73% 0.00 in
09:44 40.1 °F 32.1 °F 30.16 in Calm   8.0 mph 73% 0.00 in
09:49 40.7 °F 32.4 °F 30.16 in SE 3.0 mph 4.0 mph 72% 0.00 in
09:54 41.2 °F 32.2 °F 30.15 in SE 3.0 mph 6.0 mph 70% 0.00 in
09:59 41.3 °F 31.9 °F 30.15 in SE 2.0 mph 8.0 mph 69% 0.00 in
10:04 41.3 °F 31.5 °F 30.14 in South 1.0 mph 8.0 mph 68% 0.00 in
10:09 41.5 °F 31.4 °F 30.14 in SE 7.0 mph 8.0 mph 67% 0.00 in
10:14 41.6 °F 31.4 °F 30.14 in SSE 5.0 mph 9.0 mph 67% 0.00 in
10:19 41.8 °F 31.6 °F 30.13 in SSE 5.0 mph 9.0 mph 67% 0.00 in
10:24 42.3 °F 32.5 °F 30.13 in SSE 3.0 mph 7.0 mph 68% 0.00 in
10:29 42.0 °F 31.5 °F 30.13 in SSE 3.0 mph 8.0 mph 66% 0.00 in
10:34 42.4 °F 31.8 °F 30.12 in SSE 3.0 mph 6.0 mph 66% 0.00 in
10:39 42.4 °F 31.5 °F 30.12 in SSW 3.0 mph 5.0 mph 65% 0.00 in
10:44 42.7 °F 32.1 °F 30.12 in South 2.0 mph 5.0 mph 66% 0.00 in
10:49 42.8 °F 31.8 °F 30.12 in SSE 2.0 mph 5.0 mph 65% 0.00 in
10:54 43.0 °F 31.6 °F 30.11 in SSE 3.0 mph 7.0 mph 64% 0.00 in
10:59 43.5 °F 32.5 °F 30.11 in South 2.0 mph 6.0 mph 65% 0.00 in
11:04 44.1 °F 32.7 °F 30.10 in SE 5.0 mph 6.0 mph 64% 0.00 in
11:09 43.8 °F 31.6 °F 30.10 in South 3.0 mph 7.0 mph 62% 0.00 in
11:14 43.6 °F 31.4 °F 30.09 in SSW 4.0 mph 9.0 mph 62% 0.00 in
11:19 43.8 °F 32.0 °F 30.09 in SSE 4.0 mph 9.0 mph 63% 0.00 in
11:24 44.3 °F 32.5 °F 30.09 in SSE 2.0 mph 7.0 mph 63% 0.00 in
11:29 43.9 °F 31.7 °F 30.08 in SSE 3.0 mph 10.0 mph 62% 0.00 in
11:34 43.9 °F 31.7 °F 30.07 in SSE 2.0 mph 7.0 mph 62% 0.00 in
11:39 44.3 °F 32.5 °F 30.07 in SSE 3.0 mph 8.0 mph 63% 0.00 in
11:44 44.1 °F 31.9 °F 30.06 in SSE 3.0 mph 9.0 mph 62% 0.00 in
11:49 43.8 °F 31.6 °F 30.06 in SE 4.0 mph 7.0 mph 62% 0.00 in
11:54 43.9 °F 31.7 °F 30.05 in SSE 4.0 mph 7.0 mph 62% 0.00 in
11:59 43.9 °F 32.1 °F 30.05 in SSE 3.0 mph 7.0 mph 63% 0.00 in
12:04 43.9 °F 31.7 °F 30.04 in SSE 3.0 mph 7.0 mph 62% 0.00 in
12:09 44.1 °F 32.3 °F 30.04 in SSW 1.0 mph 7.0 mph 63% 0.00 in
12:14 44.4 °F 32.6 °F 30.04 in SE 4.0 mph 8.0 mph 63% 0.00 in
12:19 44.4 °F 32.6 °F 30.03 in ENE 1.0 mph 8.0 mph 63% 0.00 in
12:24 44.8 °F 32.6 °F 30.03 in SE 3.0 mph 8.0 mph 62% 0.00 in
12:29 44.9 °F 32.3 °F 30.02 in SSE 3.0 mph 9.0 mph 61% 0.00 in
12:34 45.3 °F 32.6 °F 30.02 in SSE 3.0 mph 9.0 mph 61% 0.00 in
12:39 45.5 °F 32.8 °F 30.02 in SE 4.0 mph 5.0 mph 61% 0.00 in
12:44 45.4 °F 32.7 °F 30.02 in SE 1.0 mph 5.0 mph 61% 0.00 in
12:49 45.4 °F 32.7 °F 30.02 in SE 3.0 mph 6.0 mph 61% 0.00 in
12:54 45.6 °F 33.3 °F 30.01 in SE 2.0 mph 6.0 mph 62% 0.00 in
12:59 46.1 °F 33.0 °F 30.01 in SE 2.0 mph 6.0 mph 60% 0.00 in
13:04 46.0 °F 32.9 °F 30.01 in ESE 2.0 mph 6.0 mph 60% 0.00 in
13:09 46.1 °F 33.0 °F 30.00 in East 5.0 mph 7.0 mph 60% 0.00 in
13:14 46.1 °F 32.6 °F 30.00 in SE 3.0 mph 7.0 mph 59% 0.00 in
13:19 46.2 °F 32.7 °F 30.00 in SE 2.0 mph 8.0 mph 59% 0.00 in
13:24 46.3 °F 32.7 °F 29.99 in SE 1.0 mph 5.0 mph 59% 0.00 in
13:29 46.3 °F 32.7 °F 29.99 in SSE 3.0 mph 8.0 mph 59% 0.00 in
13:34 46.4 °F 32.4 °F 29.98 in ESE 2.0 mph 7.0 mph 58% 0.00 in
13:39 46.4 °F 32.4 °F 29.98 in SSE 2.0 mph 7.0 mph 58% 0.00 in
13:44 46.5 °F 32.5 °F 29.98 in SE 3.0 mph 5.0 mph 58% 0.00 in
13:49 46.7 °F 32.7 °F 29.98 in SSE 2.0 mph 5.0 mph 58% 0.00 in
13:54 47.0 °F 33.0 °F 29.97 in SE 3.0 mph 6.0 mph 58% 0.00 in
13:59 46.9 °F 32.4 °F 29.97 in SE 6.0 mph 6.0 mph 57% 0.00 in
14:04 46.9 °F 32.9 °F 29.97 in SE 2.0 mph 6.0 mph 58% 0.00 in
14:09 46.9 °F 32.4 °F 29.97 in SE 2.0 mph 6.0 mph 57% 0.00 in
14:14 47.0 °F 33.0 °F 29.97 in SE 2.0 mph 6.0 mph 58% 0.00 in
14:19 47.0 °F 32.5 °F 29.96 in SSE 2.0 mph 4.0 mph 57% 0.00 in
14:24 47.1 °F 32.6 °F 29.96 in SSE 2.0 mph 5.0 mph 57% 0.00 in
14:29 47.3 °F 32.4 °F 29.96 in Calm   4.0 mph 56% 0.00 in
14:39 47.3 °F 32.8 °F 29.95 in SE 1.0 mph 2.0 mph 57% 0.00 in
14:44 47.3 °F 32.8 °F 29.95 in Calm   3.0 mph 57% 0.00 in
14:49 47.2 °F 32.7 °F 29.94 in SE 1.0 mph 4.0 mph 57% 0.00 in
14:59 47.3 °F 32.4 °F 29.93 in Calm   5.0 mph 56% 0.00 in
15:04 47.3 °F 32.8 °F 29.93 in SE 2.0 mph 3.0 mph 57% 0.00 in
15:09 47.3 °F 32.4 °F 29.93 in SE 1.0 mph 5.0 mph 56% 0.00 in
15:14 47.4 °F 32.9 °F 29.93 in SE 1.0 mph 5.0 mph 57% 0.00 in
15:19 47.4 °F 32.5 °F 29.93 in Calm   2.0 mph 56% 0.00 in
15:24 47.3 °F 32.8 °F 29.93 in SSE 1.0 mph 3.0 mph 57% 0.00 in
15:29 47.3 °F 32.8 °F 29.92 in SSE 1.0 mph 4.0 mph 57% 0.00 in
15:34 47.3 °F 32.4 °F 29.92 in SE 1.0 mph 4.0 mph 56% 0.00 in
15:39 47.2 °F 32.7 °F 29.92 in Calm   4.0 mph 57% 0.00 in
15:44 47.2 °F 32.3 °F 29.92 in SE 1.0 mph 4.0 mph 56% 0.00 in
15:49 47.1 °F 32.6 °F 29.92 in SE 2.0 mph 4.0 mph 57% 0.00 in
15:54 47.1 °F 32.2 °F 29.93 in South 1.0 mph 4.0 mph 56% 0.00 in
15:59 47.0 °F 32.5 °F 29.92 in SSE 2.0 mph 4.0 mph 57% 0.00 in
16:04 47.0 °F 32.5 °F 29.93 in South 2.0 mph 4.0 mph 57% 0.00 in
16:09 46.9 °F 32.9 °F 29.92 in South 2.0 mph 4.0 mph 58% 0.00 in
16:14 46.8 °F 32.4 °F 29.92 in SSE 5.0 mph 5.0 mph 57% 0.00 in
16:19 46.9 °F 32.4 °F 29.91 in South 2.0 mph 6.0 mph 57% 0.00 in
16:24 47.0 °F 32.5 °F 29.91 in SSE 3.0 mph 6.0 mph 57% 0.00 in
16:29 46.9 °F 32.0 °F 29.90 in SSE 3.0 mph 6.0 mph 56% 0.00 in
16:34 46.9 °F 32.0 °F 29.90 in SSE 3.0 mph 6.0 mph 56% 0.00 in
16:39 46.8 °F 31.9 °F 29.90 in SSE 3.0 mph 6.0 mph 56% 0.00 in
16:44 46.7 °F 31.8 °F 29.89 in SSE 5.0 mph 6.0 mph 56% 0.00 in
16:49 46.7 °F 31.8 °F 29.89 in SSE 3.0 mph 7.0 mph 56% 0.00 in
16:54 46.6 °F 31.7 °F 29.89 in SSE 3.0 mph 5.0 mph 56% 0.00 in
16:59 46.6 °F 31.7 °F 29.89 in SSE 3.0 mph 5.0 mph 56% 0.00 in
17:04 46.6 °F 31.7 °F 29.89 in SSE 2.0 mph 5.0 mph 56% 0.00 in
17:09 46.5 °F 31.6 °F 29.89 in South 3.0 mph 5.0 mph 56% 0.00 in
17:14 46.5 °F 31.6 °F 29.87 in SSE 4.0 mph 7.0 mph 56% 0.00 in
17:19 46.5 °F 31.2 °F 29.88 in SSE 3.0 mph 7.0 mph 55% 0.00 in
17:24 46.5 °F 31.6 °F 29.88 in SSE 2.0 mph 5.0 mph 56% 0.00 in
17:29 46.5 °F 31.6 °F 29.88 in SSE 2.0 mph 7.0 mph 56% 0.00 in
17:34 46.5 °F 31.6 °F 29.87 in SE 2.0 mph 7.0 mph 56% 0.00 in
17:39 46.4 °F 31.5 °F 29.87 in South 2.0 mph 4.0 mph 56% 0.00 in
17:44 46.3 °F 31.4 °F 29.86 in Calm   4.0 mph 56% 0.00 in
17:49 46.3 °F 31.4 °F 29.87 in Calm   4.0 mph 56% 0.00 in
17:54 46.1 °F 31.3 °F 29.87 in SSE 1.0 mph 6.0 mph 56% 0.00 in
17:59 46.1 °F 31.3 °F 29.88 in South 1.0 mph 6.0 mph 56% 0.00 in
18:04 45.9 °F 31.5 °F 29.87 in SSW 2.0 mph 4.0 mph 57% 0.00 in
18:09 45.8 °F 31.4 °F 29.87 in SSW 2.0 mph 7.0 mph 57% 0.00 in
18:14 45.8 °F 31.4 °F 29.86 in South 4.0 mph 7.0 mph 57% 0.00 in
18:19 45.9 °F 31.5 °F 29.86 in SSW 7.0 mph 8.0 mph 57% 0.00 in
18:24 46.0 °F 31.6 °F 29.85 in South 3.0 mph 11.0 mph 57% 0.00 in
18:29 46.1 °F 31.3 °F 29.85 in South 4.0 mph 11.0 mph 56% 0.00 in
18:34 46.1 °F 31.3 °F 29.85 in South 4.0 mph 9.0 mph 56% 0.00 in
18:39 46.1 °F 31.3 °F 29.85 in SSW 4.0 mph 8.0 mph 56% 0.00 in
18:44 46.1 °F 31.3 °F 29.84 in SSE 3.0 mph 12.0 mph 56% 0.00 in
18:49 46.2 °F 31.4 °F 29.84 in SW 4.0 mph 7.0 mph 56% 0.00 in
18:54 46.2 °F 31.4 °F 29.84 in South 4.0 mph 9.0 mph 56% 0.00 in
18:59 46.2 °F 31.4 °F 29.84 in South 5.0 mph 11.0 mph 56% 0.00 in
19:04 46.4 °F 31.1 °F 29.84 in South 6.0 mph 16.0 mph 55% 0.00 in
19:09 46.5 °F 30.7 °F 29.83 in South 6.0 mph 16.0 mph 54% 0.00 in
19:14 46.6 °F 30.8 °F 29.83 in South 6.0 mph 16.0 mph 54% 0.00 in
19:19 46.5 °F 31.2 °F 29.83 in South 6.0 mph 16.0 mph 55% 0.00 in
19:24 46.4 °F 31.1 °F 29.83 in South 3.0 mph 13.0 mph 55% 0.00 in
19:29 46.3 °F 31.0 °F 29.83 in SSW 6.0 mph 11.0 mph 55% 0.00 in
19:34 46.2 °F 30.9 °F 29.82 in SSW 5.0 mph 11.0 mph 55% 0.00 in
19:39 46.2 °F 31.4 °F 29.82 in South 8.0 mph 11.0 mph 56% 0.00 in
19:44 46.2 °F 31.4 °F 29.82 in SSW 4.0 mph 16.0 mph 56% 0.00 in
19:49 46.2 °F 31.4 °F 29.81 in South 3.0 mph 14.0 mph 56% 0.00 in
19:54 46.1 °F 31.3 °F 29.81 in South 5.0 mph 14.0 mph 56% 0.00 in
19:59 46.1 °F 31.3 °F 29.81 in South 5.0 mph 15.0 mph 56% 0.00 in
20:04 46.2 °F 31.8 °F 29.81 in South 6.0 mph 15.0 mph 57% 0.00 in
20:09 46.3 °F 31.9 °F 29.80 in South 6.0 mph 13.0 mph 57% 0.00 in
20:14 46.3 °F 32.3 °F 29.80 in South 6.0 mph 15.0 mph 58% 0.00 in
20:19 46.2 °F 32.2 °F 29.80 in SSE 6.0 mph 12.0 mph 58% 0.00 in
20:24 46.1 °F 32.1 °F 29.79 in SSW 10.0 mph 13.0 mph 58% 0.00 in
20:29 46.1 °F 32.6 °F 29.78 in SSW 5.0 mph 15.0 mph 59% 0.00 in
20:34 46.0 °F 32.9 °F 29.78 in South 6.0 mph 16.0 mph 60% 0.00 in
20:39 45.9 °F 33.2 °F 29.78 in SSW 8.0 mph 14.0 mph 61% 0.00 in
20:44 45.8 °F 33.5 °F 29.78 in SSE 5.0 mph 11.0 mph 62% 0.00 in
20:49 45.7 °F 33.8 °F 29.78 in South 6.0 mph 17.0 mph 63% 0.00 in
20:54 45.7 °F 33.8 °F 29.77 in South 6.0 mph 17.0 mph 63% 0.00 in
20:59 45.7 °F 33.8 °F 29.77 in South 6.0 mph 16.0 mph 63% 0.00 in
21:04 45.8 °F 33.9 °F 29.77 in South 6.0 mph 16.0 mph 63% 0.00 in
21:09 46.1 °F 34.6 °F 29.77 in SSW 10.0 mph 18.0 mph 64% 0.00 in
21:14 46.3 °F 34.4 °F 29.77 in South 9.0 mph 16.0 mph 63% 0.00 in
21:19 46.4 °F 34.5 °F 29.76 in SSW 7.0 mph 16.0 mph 63% 0.00 in
21:24 46.5 °F 34.6 °F 29.76 in SSW 7.0 mph 19.0 mph 63% 0.00 in
21:29 46.5 °F 35.0 °F 29.76 in SSW 8.0 mph 19.0 mph 64% 0.00 in
21:34 46.5 °F 35.7 °F 29.76 in SSW 3.0 mph 15.0 mph 66% 0.00 in
21:44 45.9 °F 36.3 °F 29.75 in SSW 7.0 mph 17.0 mph 69% 0.00 in
21:49 45.7 °F 36.5 °F 29.75 in SSW 3.0 mph 12.0 mph 70% 0.00 in
21:54 45.4 °F 36.9 °F 29.75 in SSW 6.0 mph 17.0 mph 72% 0.00 in
21:59 45.4 °F 37.2 °F 29.75 in South 6.0 mph 18.0 mph 73% 0.01 in
22:04 45.4 °F 37.2 °F 29.75 in South 4.0 mph 16.0 mph 73% 0.01 in
22:09 45.6 °F 37.4 °F 29.75 in SSW 7.0 mph 20.0 mph 73% 0.01 in
22:15 45.7 °F 37.9 °F 29.75 in SSW 8.0 mph 20.0 mph 74% 0.01 in
22:24 45.8 °F 38.0 °F 29.74 in SSW 9.0 mph 20.0 mph 74% 0.01 in
22:29 45.8 °F 38.3 °F 29.74 in South 7.0 mph 19.0 mph 75% 0.01 in
22:34 45.8 °F 38.3 °F 29.74 in SSE 9.0 mph 19.0 mph 75% 0.01 in
22:39 45.8 °F 38.3 °F 29.73 in SSW 9.0 mph 20.0 mph 75% 0.01 in
22:44 45.8 °F 38.3 °F 29.74 in SSW 9.0 mph 13.0 mph 75% 0.01 in
22:49 45.9 °F 38.8 °F 29.74 in WSW 4.0 mph 15.0 mph 76% 0.01 in
22:54 45.9 °F 38.8 °F 29.73 in South 11.0 mph 19.0 mph 76% 0.01 in
22:59 45.9 °F 39.1 °F 29.73 in SSW 8.0 mph 19.0 mph 77% 0.00 in
23:04 45.8 °F 39.0 °F 29.73 in SSW 8.0 mph 18.0 mph 77% 0.00 in
23:09 45.9 °F 39.4 °F 29.73 in SSW 8.0 mph 20.0 mph 78% 0.00 in
23:14 45.9 °F 39.4 °F 29.73 in SSW 9.0 mph 20.0 mph 78% 0.00 in
23:19 45.7 °F 39.6 °F 29.73 in SSW 8.0 mph 18.0 mph 79% 0.00 in
23:24 45.7 °F 39.6 °F 29.73 in West 6.0 mph 13.0 mph 79% 0.01 in
23:29 45.6 °F 39.8 °F 29.73 in SSE 6.0 mph 22.0 mph 80% 0.01 in
23:34 45.7 °F 39.9 °F 29.73 in SSW 8.0 mph 22.0 mph 80% 0.01 in
23:39 45.8 °F 39.7 °F 29.73 in SSW 8.0 mph 19.0 mph 79% 0.01 in
23:44 45.8 °F 40.0 °F 29.72 in WSW 11.0 mph 17.0 mph 80% 0.01 in
23:49 45.8 °F 40.0 °F 29.72 in SSW 6.0 mph 17.0 mph 80% 0.01 in
23:54 45.7 °F 39.9 °F 29.72 in South 5.0 mph 20.0 mph 80% 0.01 in
23:59 45.7 °F 40.2 °F 29.72 in SE 4.0 mph 19.0 mph 81% 0.01 in
Buffalo, New York, USA
Compliments of Weather Underground - 2.5 mb